sensor_id;sensor_type;location;lat;lon;timestamp;P1;P2;P0
59179;PMS7003;44956;52.422;20.818;2023-07-22T00:03:01;15.00;14.00;11.00
59179;PMS7003;44956;52.422;20.818;2023-07-22T00:06:05;15.75;13.00;10.00
59179;PMS7003;44956;52.422;20.818;2023-07-22T00:09:09;15.75;15.00;10.50
59179;PMS7003;44956;52.422;20.818;2023-07-22T00:12:11;13.00;12.50;10.00
59179;PMS7003;44956;52.422;20.818;2023-07-22T00:15:15;12.50;12.25;8.00
59179;PMS7003;44956;52.422;20.818;2023-07-22T00:18:18;13.00;12.00;8.75
59179;PMS7003;44956;52.422;20.818;2023-07-22T00:21:21;12.00;12.00;8.00
59179;PMS7003;44956;52.422;20.818;2023-07-22T00:24:24;14.00;14.00;9.25
59179;PMS7003;44956;52.422;20.818;2023-07-22T00:27:27;14.75;13.25;11.00
59179;PMS7003;44956;52.422;20.818;2023-07-22T00:30:29;14.00;14.00;10.50
59179;PMS7003;44956;52.422;20.818;2023-07-22T00:33:33;13.00;13.00;10.00
59179;PMS7003;44956;52.422;20.818;2023-07-22T00:36:35;14.00;14.00;11.00
59179;PMS7003;44956;52.422;20.818;2023-07-22T00:39:40;12.75;12.75;9.25
59179;PMS7003;44956;52.422;20.818;2023-07-22T00:42:42;17.75;17.75;12.50
59179;PMS7003;44956;52.422;20.818;2023-07-22T00:45:45;16.75;15.25;11.50
59179;PMS7003;44956;52.422;20.818;2023-07-22T00:48:48;16.50;16.50;12.00
59179;PMS7003;44956;52.422;20.818;2023-07-22T00:51:53;16.50;16.50;12.75
59179;PMS7003;44956;52.422;20.818;2023-07-22T00:54:55;15.75;14.75;11.00
59179;PMS7003;44956;52.422;20.818;2023-07-22T00:57:58;20.50;20.00;13.75
59179;PMS7003;44956;52.422;20.818;2023-07-22T01:01:01;20.75;18.75;13.75
59179;PMS7003;44956;52.422;20.818;2023-07-22T01:04:05;16.00;15.00;10.75
59179;PMS7003;44956;52.422;20.818;2023-07-22T01:07:08;17.50;16.00;13.00
59179;PMS7003;44956;52.422;20.818;2023-07-22T01:10:12;16.50;16.50;11.00
59179;PMS7003;44956;52.422;20.818;2023-07-22T01:13:17;18.00;17.00;13.25
59179;PMS7003;44956;52.422;20.818;2023-07-22T01:16:20;21.75;18.25;13.00
59179;PMS7003;44956;52.422;20.818;2023-07-22T01:19:22;15.25;15.25;11.50
59179;PMS7003;44956;52.422;20.818;2023-07-22T01:22:25;20.25;18.50;13.00
59179;PMS7003;44956;52.422;20.818;2023-07-22T01:25:29;23.00;20.75;15.25
59179;PMS7003;44956;52.422;20.818;2023-07-22T01:28:34;24.50;24.00;17.00
59179;PMS7003;44956;52.422;20.818;2023-07-22T01:31:37;29.25;27.50;22.00
59179;PMS7003;44956;52.422;20.818;2023-07-22T01:34:40;34.00;31.75;22.50
59179;PMS7003;44956;52.422;20.818;2023-07-22T01:37:44;27.75;24.75;17.00
59179;PMS7003;44956;52.422;20.818;2023-07-22T01:40:47;23.25;23.25;17.00
59179;PMS7003;44956;52.422;20.818;2023-07-22T01:43:50;21.25;19.25;14.00
59179;PMS7003;44956;52.422;20.818;2023-07-22T01:46:53;25.25;22.00;15.25
59179;PMS7003;44956;52.422;20.818;2023-07-22T01:49:55;25.25;22.00;15.00
59179;PMS7003;44956;52.422;20.818;2023-07-22T01:52:58;22.00;21.25;15.75
59179;PMS7003;44956;52.422;20.818;2023-07-22T01:56:01;21.75;21.75;16.00
59179;PMS7003;44956;52.422;20.818;2023-07-22T01:59:03;22.25;22.25;16.50
59179;PMS7003;44956;52.422;20.818;2023-07-22T02:02:06;24.00;24.00;14.75
59179;PMS7003;44956;52.422;20.818;2023-07-22T02:05:09;24.00;24.00;16.00
59179;PMS7003;44956;52.422;20.818;2023-07-22T02:08:12;23.00;19.25;14.00
59179;PMS7003;44956;52.422;20.818;2023-07-22T02:11:16;27.50;23.25;15.50
59179;PMS7003;44956;52.422;20.818;2023-07-22T02:14:21;20.75;20.75;14.75
59179;PMS7003;44956;52.422;20.818;2023-07-22T02:17:23;18.75;17.50;13.75
59179;PMS7003;44956;52.422;20.818;2023-07-22T02:20:26;18.00;17.50;12.25
59179;PMS7003;44956;52.422;20.818;2023-07-22T02:23:31;23.75;21.00;15.50
59179;PMS7003;44956;52.422;20.818;2023-07-22T02:26:34;23.00;23.00;18.00
59179;PMS7003;44956;52.422;20.818;2023-07-22T02:29:36;26.75;23.50;16.00
59179;PMS7003;44956;52.422;20.818;2023-07-22T02:32:39;23.25;22.00;16.00
59179;PMS7003;44956;52.422;20.818;2023-07-22T02:35:42;27.50;25.25;16.00
59179;PMS7003;44956;52.422;20.818;2023-07-22T02:38:47;23.00;22.25;15.00
59179;PMS7003;44956;52.422;20.818;2023-07-22T02:41:49;24.00;24.00;17.00
59179;PMS7003;44956;52.422;20.818;2023-07-22T02:44:52;23.75;22.75;16.00
59179;PMS7003;44956;52.422;20.818;2023-07-22T02:47:55;23.50;22.25;15.25
59179;PMS7003;44956;52.422;20.818;2023-07-22T02:51:04;23.75;22.75;17.50
59179;PMS7003;44956;52.422;20.818;2023-07-22T02:54:08;22.75;22.75;16.75
59179;PMS7003;44956;52.422;20.818;2023-07-22T02:57:10;23.25;23.25;16.50
59179;PMS7003;44956;52.422;20.818;2023-07-22T03:00:14;23.50;23.00;16.25
59179;PMS7003;44956;52.422;20.818;2023-07-22T03:03:27;22.50;21.75;15.25
59179;PMS7003;44956;52.422;20.818;2023-07-22T03:06:30;27.50;26.50;16.75
59179;PMS7003;44956;52.422;20.818;2023-07-22T03:09:33;22.00;22.00;15.00
59179;PMS7003;44956;52.422;20.818;2023-07-22T03:12:36;20.25;19.75;15.50
59179;PMS7003;44956;52.422;20.818;2023-07-22T03:15:40;24.00;21.00;15.00
59179;PMS7003;44956;52.422;20.818;2023-07-22T03:18:43;22.00;19.50;14.25
59179;PMS7003;44956;52.422;20.818;2023-07-22T03:21:46;22.25;21.00;16.00
59179;PMS7003;44956;52.422;20.818;2023-07-22T03:24:49;21.50;20.50;15.75
59179;PMS7003;44956;52.422;20.818;2023-07-22T03:27:51;27.00;20.75;16.00
59179;PMS7003;44956;52.422;20.818;2023-07-22T03:30:54;24.00;23.75;16.25
59179;PMS7003;44956;52.422;20.818;2023-07-22T03:33:57;24.75;23.50;15.75
59179;PMS7003;44956;52.422;20.818;2023-07-22T03:37:00;26.00;24.50;17.00
59179;PMS7003;44956;52.422;20.818;2023-07-22T03:40:03;23.50;22.75;15.50
59179;PMS7003;44956;52.422;20.818;2023-07-22T03:43:23;24.00;24.00;16.75
59179;PMS7003;44956;52.422;20.818;2023-07-22T03:46:25;22.50;22.25;14.75
59179;PMS7003;44956;52.422;20.818;2023-07-22T03:49:28;25.50;24.50;15.00
59179;PMS7003;44956;52.422;20.818;2023-07-22T03:52:31;27.25;25.50;18.00
59179;PMS7003;44956;52.422;20.818;2023-07-22T03:55:34;23.25;22.25;16.25
59179;PMS7003;44956;52.422;20.818;2023-07-22T03:58:37;25.75;25.75;18.25
59179;PMS7003;44956;52.422;20.818;2023-07-22T04:01:39;27.00;26.00;18.00
59179;PMS7003;44956;52.422;20.818;2023-07-22T04:04:42;25.50;24.75;18.25
59179;PMS7003;44956;52.422;20.818;2023-07-22T04:07:45;29.00;29.00;19.00
59179;PMS7003;44956;52.422;20.818;2023-07-22T04:10:54;29.25;26.25;19.25
59179;PMS7003;44956;52.422;20.818;2023-07-22T04:13:57;29.00;29.00;20.75
59179;PMS7003;44956;52.422;20.818;2023-07-22T04:16:59;26.00;24.75;17.25
59179;PMS7003;44956;52.422;20.818;2023-07-22T04:20:02;31.50;31.50;20.75
59179;PMS7003;44956;52.422;20.818;2023-07-22T04:23:06;24.00;23.00;17.00
59179;PMS7003;44956;52.422;20.818;2023-07-22T04:26:10;27.25;26.75;17.00
59179;PMS7003;44956;52.422;20.818;2023-07-22T04:29:13;25.50;23.50;17.00
59179;PMS7003;44956;52.422;20.818;2023-07-22T04:32:15;25.50;23.25;15.75
59179;PMS7003;44956;52.422;20.818;2023-07-22T04:35:18;23.00;23.00;16.00
59179;PMS7003;44956;52.422;20.818;2023-07-22T04:38:21;18.75;18.75;11.75
59179;PMS7003;44956;52.422;20.818;2023-07-22T04:41:24;19.25;19.00;14.50
59179;PMS7003;44956;52.422;20.818;2023-07-22T04:44:27;19.00;19.00;14.00
59179;PMS7003;44956;52.422;20.818;2023-07-22T04:47:30;21.25;20.00;15.00
59179;PMS7003;44956;52.422;20.818;2023-07-22T04:50:33;21.25;21.25;14.25
59179;PMS7003;44956;52.422;20.818;2023-07-22T04:53:35;19.00;17.25;13.25
59179;PMS7003;44956;52.422;20.818;2023-07-22T04:56:38;22.50;18.25;14.00
59179;PMS7003;44956;52.422;20.818;2023-07-22T04:59:40;19.50;18.50;14.00
59179;PMS7003;44956;52.422;20.818;2023-07-22T05:02:43;17.75;16.75;11.25
59179;PMS7003;44956;52.422;20.818;2023-07-22T05:05:46;16.50;16.25;11.75
59179;PMS7003;44956;52.422;20.818;2023-07-22T05:08:49;18.00;16.00;12.75
59179;PMS7003;44956;52.422;20.818;2023-07-22T05:11:51;18.25;17.00;11.25
59179;PMS7003;44956;52.422;20.818;2023-07-22T05:14:54;19.00;18.25;14.00
59179;PMS7003;44956;52.422;20.818;2023-07-22T05:17:56;16.50;16.50;12.00
59179;PMS7003;44956;52.422;20.818;2023-07-22T05:20:59;15.75;15.75;11.50
59179;PMS7003;44956;52.422;20.818;2023-07-22T05:24:02;20.75;20.00;13.00
59179;PMS7003;44956;52.422;20.818;2023-07-22T05:27:05;19.50;17.25;13.25
59179;PMS7003;44956;52.422;20.818;2023-07-22T05:30:10;17.50;17.50;14.25
59179;PMS7003;44956;52.422;20.818;2023-07-22T05:33:29;18.25;16.50;11.25
59179;PMS7003;44956;52.422;20.818;2023-07-22T05:36:32;18.75;18.25;13.00
59179;PMS7003;44956;52.422;20.818;2023-07-22T05:39:35;18.75;18.50;10.75
59179;PMS7003;44956;52.422;20.818;2023-07-22T05:42:37;17.25;14.75;12.25
59179;PMS7003;44956;52.422;20.818;2023-07-22T05:45:40;20.50;19.25;12.50
59179;PMS7003;44956;52.422;20.818;2023-07-22T05:48:43;21.00;18.50;12.00
59179;PMS7003;44956;52.422;20.818;2023-07-22T05:51:45;21.00;19.75;15.00
59179;PMS7003;44956;52.422;20.818;2023-07-22T05:54:48;22.25;21.00;14.50
59179;PMS7003;44956;52.422;20.818;2023-07-22T05:57:51;17.75;17.75;12.25
59179;PMS7003;44956;52.422;20.818;2023-07-22T06:00:53;20.00;18.75;13.25
59179;PMS7003;44956;52.422;20.818;2023-07-22T06:03:57;18.75;18.25;13.50
59179;PMS7003;44956;52.422;20.818;2023-07-22T06:07:00;19.00;18.50;14.00
59179;PMS7003;44956;52.422;20.818;2023-07-22T06:10:03;16.00;16.00;11.50
59179;PMS7003;44956;52.422;20.818;2023-07-22T06:13:06;17.50;16.25;12.00
59179;PMS7003;44956;52.422;20.818;2023-07-22T06:16:09;16.75;16.75;11.00
59179;PMS7003;44956;52.422;20.818;2023-07-22T06:19:11;19.00;18.00;11.75
59179;PMS7003;44956;52.422;20.818;2023-07-22T06:22:14;17.50;16.00;11.75
59179;PMS7003;44956;52.422;20.818;2023-07-22T06:25:16;18.75;16.75;13.25
59179;PMS7003;44956;52.422;20.818;2023-07-22T06:28:19;13.25;13.25;10.25
59179;PMS7003;44956;52.422;20.818;2023-07-22T06:31:22;16.50;16.50;11.00
59179;PMS7003;44956;52.422;20.818;2023-07-22T06:34:26;16.75;16.75;12.25
59179;PMS7003;44956;52.422;20.818;2023-07-22T06:37:29;19.25;17.75;12.25
59179;PMS7003;44956;52.422;20.818;2023-07-22T06:40:32;13.50;13.50;11.00
59179;PMS7003;44956;52.422;20.818;2023-07-22T06:43:34;17.25;17.25;11.00
59179;PMS7003;44956;52.422;20.818;2023-07-22T06:46:37;13.25;13.25;11.00
59179;PMS7003;44956;52.422;20.818;2023-07-22T06:49:40;16.00;13.25;10.00
59179;PMS7003;44956;52.422;20.818;2023-07-22T06:52:48;13.50;12.25;9.00
59179;PMS7003;44956;52.422;20.818;2023-07-22T06:55:51;14.50;14.50;9.50
59179;PMS7003;44956;52.422;20.818;2023-07-22T06:58:55;12.33;12.00;9.00
59179;PMS7003;44956;52.422;20.818;2023-07-22T07:01:58;10.67;10.67;8.33
59179;PMS7003;44956;52.422;20.818;2023-07-22T07:05:01;13.00;12.00;9.00
59179;PMS7003;44956;52.422;20.818;2023-07-22T07:08:04;12.00;12.00;9.00
59179;PMS7003;44956;52.422;20.818;2023-07-22T07:11:08;12.67;12.67;8.00
59179;PMS7003;44956;52.422;20.818;2023-07-22T07:14:10;9.00;9.00;7.00
59179;PMS7003;44956;52.422;20.818;2023-07-22T07:17:14;13.67;13.67;10.67
59179;PMS7003;44956;52.422;20.818;2023-07-22T07:20:17;14.67;12.00;10.00
59179;PMS7003;44956;52.422;20.818;2023-07-22T07:23:20;12.33;12.33;9.33
59179;PMS7003;44956;52.422;20.818;2023-07-22T07:26:22;12.33;12.33;10.00
59179;PMS7003;44956;52.422;20.818;2023-07-22T07:29:26;12.00;12.00;9.00
59179;PMS7003;44956;52.422;20.818;2023-07-22T07:32:48;14.00;13.00;11.00
59179;PMS7003;44956;52.422;20.818;2023-07-22T07:35:51;11.33;11.33;9.33
59179;PMS7003;44956;52.422;20.818;2023-07-22T07:38:54;14.67;12.67;9.00
59179;PMS7003;44956;52.422;20.818;2023-07-22T07:41:56;14.67;12.00;8.00
59179;PMS7003;44956;52.422;20.818;2023-07-22T07:44:59;10.33;10.33;8.00
59179;PMS7003;44956;52.422;20.818;2023-07-22T07:48:02;13.00;12.00;8.00
59179;PMS7003;44956;52.422;20.818;2023-07-22T07:51:05;12.00;12.00;10.00
59179;PMS7003;44956;52.422;20.818;2023-07-22T07:54:08;14.00;13.67;10.00
59179;PMS7003;44956;52.422;20.818;2023-07-22T07:57:11;13.33;13.33;10.33
59179;PMS7003;44956;52.422;20.818;2023-07-22T08:00:14;12.67;12.00;9.00
59179;PMS7003;44956;52.422;20.818;2023-07-22T08:03:16;14.33;12.33;10.00
59179;PMS7003;44956;52.422;20.818;2023-07-22T08:06:19;11.33;11.33;8.00
59179;PMS7003;44956;52.422;20.818;2023-07-22T08:09:22;14.67;11.00;8.00
59179;PMS7003;44956;52.422;20.818;2023-07-22T08:12:25;11.67;11.67;9.00
59179;PMS7003;44956;52.422;20.818;2023-07-22T08:15:27;14.00;14.00;10.67
59179;PMS7003;44956;52.422;20.818;2023-07-22T08:18:33;14.67;14.00;9.00
59179;PMS7003;44956;52.422;20.818;2023-07-22T08:21:36;13.33;12.33;9.33
59179;PMS7003;44956;52.422;20.818;2023-07-22T08:24:40;14.00;14.00;10.00
59179;PMS7003;44956;52.422;20.818;2023-07-22T08:27:44;17.33;15.67;11.67
59179;PMS7003;44956;52.422;20.818;2023-07-22T08:30:48;15.00;15.00;11.33
59179;PMS7003;44956;52.422;20.818;2023-07-22T08:33:51;17.33;14.00;11.33
59179;PMS7003;44956;52.422;20.818;2023-07-22T08:36:57;17.00;16.67;13.33
59179;PMS7003;44956;52.422;20.818;2023-07-22T08:40:00;16.33;15.00;11.67
59179;PMS7003;44956;52.422;20.818;2023-07-22T08:43:03;14.67;13.00;10.33
59179;PMS7003;44956;52.422;20.818;2023-07-22T08:46:08;15.00;14.00;10.00
59179;PMS7003;44956;52.422;20.818;2023-07-22T08:49:12;12.33;11.33;8.00
59179;PMS7003;44956;52.422;20.818;2023-07-22T08:52:14;9.00;9.00;7.67
59179;PMS7003;44956;52.422;20.818;2023-07-22T08:55:18;5.67;5.67;4.67
59179;PMS7003;44956;52.422;20.818;2023-07-22T08:58:21;5.00;5.00;3.33
59179;PMS7003;44956;52.422;20.818;2023-07-22T09:01:25;4.67;4.67;3.67
59179;PMS7003;44956;52.422;20.818;2023-07-22T09:04:27;5.00;3.33;3.00
59179;PMS7003;44956;52.422;20.818;2023-07-22T09:07:30;5.00;5.00;3.00
59179;PMS7003;44956;52.422;20.818;2023-07-22T09:10:33;6.00;6.00;5.00
59179;PMS7003;44956;52.422;20.818;2023-07-22T09:13:36;5.67;5.67;4.67
59179;PMS7003;44956;52.422;20.818;2023-07-22T09:16:41;6.33;6.33;5.00
59179;PMS7003;44956;52.422;20.818;2023-07-22T09:19:45;5.67;5.67;4.00
59179;PMS7003;44956;52.422;20.818;2023-07-22T09:22:48;7.00;6.00;5.00
59179;PMS7003;44956;52.422;20.818;2023-07-22T09:26:12;2.67;2.67;1.33
59179;PMS7003;44956;52.422;20.818;2023-07-22T09:29:15;7.33;7.33;5.00
59179;PMS7003;44956;52.422;20.818;2023-07-22T09:32:22;5.67;5.00;4.00
59179;PMS7003;44956;52.422;20.818;2023-07-22T09:35:44;5.00;5.00;3.33
59179;PMS7003;44956;52.422;20.818;2023-07-22T09:38:58;5.00;4.67;3.00
59179;PMS7003;44956;52.422;20.818;2023-07-22T09:42:03;5.00;5.00;4.00
59179;PMS7003;44956;52.422;20.818;2023-07-22T09:45:06;4.33;4.00;3.00
59179;PMS7003;44956;52.422;20.818;2023-07-22T09:48:09;5.00;5.00;4.00
59179;PMS7003;44956;52.422;20.818;2023-07-22T09:51:13;7.00;5.33;4.00
59179;PMS7003;44956;52.422;20.818;2023-07-22T09:54:16;5.67;5.67;3.67
59179;PMS7003;44956;52.422;20.818;2023-07-22T09:57:20;7.33;6.67;5.00
59179;PMS7003;44956;52.422;20.818;2023-07-22T10:00:23;6.33;6.33;4.67
59179;PMS7003;44956;52.422;20.818;2023-07-22T10:03:29;8.67;8.33;7.00
59179;PMS7003;44956;52.422;20.818;2023-07-22T10:06:33;9.00;8.67;7.00
59179;PMS7003;44956;52.422;20.818;2023-07-22T10:09:36;9.00;9.00;7.33
59179;PMS7003;44956;52.422;20.818;2023-07-22T10:12:39;9.67;9.67;7.33
59179;PMS7003;44956;52.422;20.818;2023-07-22T10:15:44;9.00;9.00;7.00
59179;PMS7003;44956;52.422;20.818;2023-07-22T10:18:48;8.00;6.67;5.33
59179;PMS7003;44956;52.422;20.818;2023-07-22T10:21:51;8.00;6.67;5.00
59179;PMS7003;44956;52.422;20.818;2023-07-22T10:24:54;5.00;5.00;4.00
59179;PMS7003;44956;52.422;20.818;2023-07-22T10:27:57;5.00;5.00;2.67
59179;PMS7003;44956;52.422;20.818;2023-07-22T10:31:00;5.00;5.00;3.33
59179;PMS7003;44956;52.422;20.818;2023-07-22T10:34:03;4.67;4.67;4.33
59179;PMS7003;44956;52.422;20.818;2023-07-22T10:37:08;5.33;5.33;3.33
59179;PMS7003;44956;52.422;20.818;2023-07-22T10:40:28;6.00;6.00;5.00
59179;PMS7003;44956;52.422;20.818;2023-07-22T10:43:32;4.67;4.67;3.00
59179;PMS7003;44956;52.422;20.818;2023-07-22T10:46:37;5.00;5.00;4.00
59179;PMS7003;44956;52.422;20.818;2023-07-22T10:49:44;5.00;5.00;3.33
59179;PMS7003;44956;52.422;20.818;2023-07-22T10:52:48;8.00;6.67;4.33
59179;PMS7003;44956;52.422;20.818;2023-07-22T10:56:02;6.00;6.00;4.00
59179;PMS7003;44956;52.422;20.818;2023-07-22T10:59:06;5.00;5.00;4.00
59179;PMS7003;44956;52.422;20.818;2023-07-22T11:02:22;5.00;4.00;3.00
59179;PMS7003;44956;52.422;20.818;2023-07-22T11:05:46;6.00;6.00;4.00
59179;PMS7003;44956;52.422;20.818;2023-07-22T11:08:50;5.00;5.00;5.00
59179;PMS7003;44956;52.422;20.818;2023-07-22T11:11:54;4.67;4.67;3.67
59179;PMS7003;44956;52.422;20.818;2023-07-22T11:15:17;3.67;3.67;2.67
59179;PMS7003;44956;52.422;20.818;2023-07-22T11:18:20;5.67;5.67;4.67
59179;PMS7003;44956;52.422;20.818;2023-07-22T11:21:23;5.33;5.33;2.67
59179;PMS7003;44956;52.422;20.818;2023-07-22T11:24:26;5.00;5.00;3.67
59179;PMS7003;44956;52.422;20.818;2023-07-22T11:27:29;6.67;6.67;4.67
59179;PMS7003;44956;52.422;20.818;2023-07-22T11:30:31;6.00;6.00;3.67
59179;PMS7003;44956;52.422;20.818;2023-07-22T11:33:39;5.00;5.00;4.00
59179;PMS7003;44956;52.422;20.818;2023-07-22T11:36:43;5.00;5.00;4.00
59179;PMS7003;44956;52.422;20.818;2023-07-22T11:39:46;5.67;5.67;4.00
59179;PMS7003;44956;52.422;20.818;2023-07-22T11:42:49;8.00;6.00;5.00
59179;PMS7003;44956;52.422;20.818;2023-07-22T11:45:53;6.00;6.00;5.00
59179;PMS7003;44956;52.422;20.818;2023-07-22T11:48:56;4.67;4.67;4.00
59179;PMS7003;44956;52.422;20.818;2023-07-22T11:52:08;5.00;5.00;3.33
59179;PMS7003;44956;52.422;20.818;2023-07-22T11:55:14;7.67;7.00;5.00
59179;PMS7003;44956;52.422;20.818;2023-07-22T11:58:32;5.33;5.33;3.00
59179;PMS7003;44956;52.422;20.818;2023-07-22T12:01:37;6.33;6.33;5.00
59179;PMS7003;44956;52.422;20.818;2023-07-22T12:04:40;7.00;7.00;5.67
59179;PMS7003;44956;52.422;20.818;2023-07-22T12:07:43;6.67;6.67;5.67
59179;PMS7003;44956;52.422;20.818;2023-07-22T12:10:55;7.00;7.00;5.67
59179;PMS7003;44956;52.422;20.818;2023-07-22T12:17:16;8.00;8.00;6.00
59179;PMS7003;44956;52.422;20.818;2023-07-22T12:20:30;6.33;6.33;5.00
59179;PMS7003;44956;52.422;20.818;2023-07-22T12:23:34;6.00;6.00;5.67
59179;PMS7003;44956;52.422;20.818;2023-07-22T12:26:39;5.67;5.67;4.00
59179;PMS7003;44956;52.422;20.818;2023-07-22T12:29:41;7.00;7.00;4.33
59179;PMS7003;44956;52.422;20.818;2023-07-22T12:32:44;5.67;5.67;5.00
59179;PMS7003;44956;52.422;20.818;2023-07-22T12:35:48;6.00;6.00;5.00
59179;PMS7003;44956;52.422;20.818;2023-07-22T12:38:51;5.00;5.00;4.33
59179;PMS7003;44956;52.422;20.818;2023-07-22T12:41:53;4.33;4.33;3.67
59179;PMS7003;44956;52.422;20.818;2023-07-22T12:44:57;5.00;5.00;4.00
59179;PMS7003;44956;52.422;20.818;2023-07-22T12:48:00;4.67;4.67;3.33
59179;PMS7003;44956;52.422;20.818;2023-07-22T12:51:03;6.00;6.00;4.00
59179;PMS7003;44956;52.422;20.818;2023-07-22T12:54:05;6.33;6.33;5.00
59179;PMS7003;44956;52.422;20.818;2023-07-22T12:57:08;5.00;5.00;4.00
59179;PMS7003;44956;52.422;20.818;2023-07-22T13:00:11;5.00;5.00;3.33
59179;PMS7003;44956;52.422;20.818;2023-07-22T13:03:14;7.67;7.67;6.00
59179;PMS7003;44956;52.422;20.818;2023-07-22T13:06:17;7.67;7.67;5.00
59179;PMS7003;44956;52.422;20.818;2023-07-22T13:09:20;7.00;7.00;5.00
59179;PMS7003;44956;52.422;20.818;2023-07-22T13:12:24;6.33;6.33;5.00
59179;PMS7003;44956;52.422;20.818;2023-07-22T13:15:27;6.67;6.33;4.33
59179;PMS7003;44956;52.422;20.818;2023-07-22T13:18:29;7.67;7.67;6.00
59179;PMS7003;44956;52.422;20.818;2023-07-22T13:21:33;4.33;4.33;3.67
59179;PMS7003;44956;52.422;20.818;2023-07-22T13:24:35;6.00;6.00;4.67
59179;PMS7003;44956;52.422;20.818;2023-07-22T13:27:38;9.33;8.00;5.33
59179;PMS7003;44956;52.422;20.818;2023-07-22T13:30:42;6.67;6.67;5.00
59179;PMS7003;44956;52.422;20.818;2023-07-22T13:33:45;8.00;8.00;6.00
59179;PMS7003;44956;52.422;20.818;2023-07-22T13:36:48;7.67;6.00;5.00
59179;PMS7003;44956;52.422;20.818;2023-07-22T13:39:51;7.33;7.33;5.00
59179;PMS7003;44956;52.422;20.818;2023-07-22T13:42:55;7.00;7.00;6.00
59179;PMS7003;44956;52.422;20.818;2023-07-22T13:45:58;8.00;8.00;6.33
59179;PMS7003;44956;52.422;20.818;2023-07-22T13:49:00;8.00;8.00;6.00
59179;PMS7003;44956;52.422;20.818;2023-07-22T13:52:03;9.00;8.00;6.00
59179;PMS7003;44956;52.422;20.818;2023-07-22T13:55:06;6.67;6.67;6.00
59179;PMS7003;44956;52.422;20.818;2023-07-22T13:58:10;5.00;5.00;2.67
59179;PMS7003;44956;52.422;20.818;2023-07-22T14:01:13;8.00;7.33;5.33
59179;PMS7003;44956;52.422;20.818;2023-07-22T14:04:16;5.67;5.67;4.67
59179;PMS7003;44956;52.422;20.818;2023-07-22T14:07:18;8.33;8.33;5.67
59179;PMS7003;44956;52.422;20.818;2023-07-22T14:10:22;6.67;6.67;5.00
59179;PMS7003;44956;52.422;20.818;2023-07-22T14:13:24;9.00;9.00;6.67
59179;PMS7003;44956;52.422;20.818;2023-07-22T14:16:27;11.00;9.00;7.33
59179;PMS7003;44956;52.422;20.818;2023-07-22T14:19:30;10.00;10.00;7.67
59179;PMS7003;44956;52.422;20.818;2023-07-22T14:22:33;11.00;8.00;7.00
59179;PMS7003;44956;52.422;20.818;2023-07-22T14:25:36;10.67;10.67;7.67
59179;PMS7003;44956;52.422;20.818;2023-07-22T14:28:38;8.00;8.00;7.00
59179;PMS7003;44956;52.422;20.818;2023-07-22T14:31:42;11.00;11.00;8.00
59179;PMS7003;44956;52.422;20.818;2023-07-22T14:34:45;9.67;9.67;8.00
59179;PMS7003;44956;52.422;20.818;2023-07-22T14:37:48;10.00;10.00;7.33
59179;PMS7003;44956;52.422;20.818;2023-07-22T14:40:51;9.33;9.33;6.67
59179;PMS7003;44956;52.422;20.818;2023-07-22T14:43:54;10.00;10.00;8.00
59179;PMS7003;44956;52.422;20.818;2023-07-22T14:46:57;9.33;8.33;6.33
59179;PMS7003;44956;52.422;20.818;2023-07-22T14:50:00;10.00;10.00;8.00
59179;PMS7003;44956;52.422;20.818;2023-07-22T14:53:03;9.67;9.67;7.33
59179;PMS7003;44956;52.422;20.818;2023-07-22T14:56:06;9.33;9.33;7.33
59179;PMS7003;44956;52.422;20.818;2023-07-22T14:59:11;9.00;9.00;7.00
59179;PMS7003;44956;52.422;20.818;2023-07-22T15:02:16;7.00;7.00;5.67
59179;PMS7003;44956;52.422;20.818;2023-07-22T15:05:19;8.67;7.67;5.67
59179;PMS7003;44956;52.422;20.818;2023-07-22T15:08:22;8.67;8.67;6.00
59179;PMS7003;44956;52.422;20.818;2023-07-22T15:11:25;7.67;7.67;6.00
59179;PMS7003;44956;52.422;20.818;2023-07-22T15:14:28;7.67;7.67;4.67
59179;PMS7003;44956;52.422;20.818;2023-07-22T15:17:31;6.33;6.33;5.67
59179;PMS7003;44956;52.422;20.818;2023-07-22T15:20:35;7.67;7.67;5.67
59179;PMS7003;44956;52.422;20.818;2023-07-22T15:23:38;5.67;5.33;4.33
59179;PMS7003;44956;52.422;20.818;2023-07-22T15:26:40;6.67;6.67;5.00
59179;PMS7003;44956;52.422;20.818;2023-07-22T15:29:43;7.00;7.00;5.67
59179;PMS7003;44956;52.422;20.818;2023-07-22T15:32:47;5.67;5.67;3.67
59179;PMS7003;44956;52.422;20.818;2023-07-22T15:35:50;5.67;5.67;4.67
59179;PMS7003;44956;52.422;20.818;2023-07-22T15:38:53;3.67;3.67;3.67
59179;PMS7003;44956;52.422;20.818;2023-07-22T15:41:56;7.33;6.33;5.33
59179;PMS7003;44956;52.422;20.818;2023-07-22T15:44:59;5.33;5.33;4.00
59179;PMS7003;44956;52.422;20.818;2023-07-22T15:48:02;5.67;5.00;4.00
59179;PMS7003;44956;52.422;20.818;2023-07-22T15:51:05;6.33;6.33;4.67
59179;PMS7003;44956;52.422;20.818;2023-07-22T15:54:08;6.33;6.33;4.67
59179;PMS7003;44956;52.422;20.818;2023-07-22T15:57:11;6.00;6.00;5.00
59179;PMS7003;44956;52.422;20.818;2023-07-22T16:00:14;5.00;5.00;4.00
59179;PMS7003;44956;52.422;20.818;2023-07-22T16:03:17;6.00;5.67;4.33
59179;PMS7003;44956;52.422;20.818;2023-07-22T16:06:20;5.33;5.33;4.33
59179;PMS7003;44956;52.422;20.818;2023-07-22T16:09:34;6.67;6.67;5.33
59179;PMS7003;44956;52.422;20.818;2023-07-22T16:12:40;8.67;6.33;4.67
59179;PMS7003;44956;52.422;20.818;2023-07-22T16:15:42;5.67;5.67;4.33
59179;PMS7003;44956;52.422;20.818;2023-07-22T16:18:45;6.33;6.33;4.67
59179;PMS7003;44956;52.422;20.818;2023-07-22T16:21:49;6.67;6.67;5.00
59179;PMS7003;44956;52.422;20.818;2023-07-22T16:24:52;6.00;6.00;4.67
59179;PMS7003;44956;52.422;20.818;2023-07-22T16:27:54;5.67;5.67;4.33
59179;PMS7003;44956;52.422;20.818;2023-07-22T16:30:57;6.33;5.00;3.67
59179;PMS7003;44956;52.422;20.818;2023-07-22T16:34:00;5.33;4.67;3.67
59179;PMS7003;44956;52.422;20.818;2023-07-22T16:37:04;6.00;6.00;4.00
59179;PMS7003;44956;52.422;20.818;2023-07-22T16:40:07;6.00;5.67;3.67
59179;PMS7003;44956;52.422;20.818;2023-07-22T16:43:13;4.67;4.67;3.67
59179;PMS7003;44956;52.422;20.818;2023-07-22T16:46:16;4.00;4.00;2.67
59179;PMS7003;44956;52.422;20.818;2023-07-22T16:49:18;5.33;5.33;4.00
59179;PMS7003;44956;52.422;20.818;2023-07-22T16:52:21;6.67;6.00;4.67
59179;PMS7003;44956;52.422;20.818;2023-07-22T16:55:24;3.00;3.00;2.67
59179;PMS7003;44956;52.422;20.818;2023-07-22T16:58:27;3.67;3.67;2.67
59179;PMS7003;44956;52.422;20.818;2023-07-22T17:01:30;4.33;4.33;3.00
59179;PMS7003;44956;52.422;20.818;2023-07-22T17:04:33;5.33;5.00;3.00
59179;PMS7003;44956;52.422;20.818;2023-07-22T17:07:36;5.00;4.00;3.00
59179;PMS7003;44956;52.422;20.818;2023-07-22T17:10:40;5.00;5.00;3.67
59179;PMS7003;44956;52.422;20.818;2023-07-22T17:13:43;6.00;5.00;4.00
59179;PMS7003;44956;52.422;20.818;2023-07-22T17:16:46;5.00;5.00;3.00
59179;PMS7003;44956;52.422;20.818;2023-07-22T17:19:49;4.00;4.00;3.67
59179;PMS7003;44956;52.422;20.818;2023-07-22T17:22:51;4.00;4.00;3.00